Nissan Maru — JG5485 — position and weather

sailwx.info

Track history (hours):
 
Tides and Currents Weather Stations Pressure Air Temp Water Temp Dewpoint Dewpoint Depression Visibility Wind Speed Wind Dir Waves Ship Positions

Nissan Maru

Last reported at 2015-Jan-25 10:33 UTC. Time now 2015-Jan-26 22:36 UTC.
Position N 35°01' E 139°33'.

Length 108 m; draft 7 m.

Type: Cargo ship. MMSI: 431400593.

Date/timePositionNaut miles runAvg speedWind from/ knotsBaromVisibWave heightAir tempDewpointWater temp
2015-Jan-25 10:33N 35°01' E 139°33'1313.2
2015-Jan-25 09:33N 35°11' E 139°45'1111.1
2015-Jan-25 08:33N 35°21' E 139°42'1212.1
2015-Jan-25 07:33N 35°30' E 139°52'7 0.6
2015-Jan-24 19:30N 35°33' E 140°00'1112.0
2015-Jan-24 18:34N 35°28' E 139°48'3 3.1
2015-Jan-24 17:31N 35°29' E 139°44'0 0.0
2015-Jan-24 16:31N 35°29' E 139°44'0 0.0
2015-Jan-24 15:31N 35°29' E 139°44'0 0.0
2015-Jan-24 14:31N 35°29' E 139°44'0 0.0
2015-Jan-24 13:31N 35°29' E 139°44'0 0.0
2015-Jan-24 12:31N 35°29' E 139°44'0 0.0
2015-Jan-24 11:31N 35°29' E 139°44'0 0.0
2015-Jan-24 10:31N 35°29' E 139°44'0 0.0
2015-Jan-24 09:31N 35°29' E 139°44'0 0.0
2015-Jan-24 08:31N 35°29' E 139°44'0 0.0
2015-Jan-24 07:31N 35°29' E 139°44'0 0.0
2015-Jan-24 06:28N 35°29' E 139°44'0 0.0
2015-Jan-24 05:31N 35°29' E 139°44'0 0.0
2015-Jan-24 04:31N 35°29' E 139°44'0 0.0
2015-Jan-24 03:31N 35°29' E 139°44'0 0.0
2015-Jan-24 02:31N 35°29' E 139°44'0 0.0
2015-Jan-24 01:31N 35°29' E 139°44'0 0.0
2015-Jan-24 00:31N 35°29' E 139°44'0 0.0
2015-Jan-23 23:31N 35°29' E 139°44'0 0.0
2015-Jan-23 22:33N 35°29' E 139°44'3 2.5
2015-Jan-23 21:33N 35°27' E 139°45'5 5.1
2015-Jan-23 20:33N 35°30' E 139°51'9 8.7
2015-Jan-23 19:31N 35°34' E 140°00'1 0.0
2015-Jan-22 21:21N 35°33' E 140°01'0 0.0
2015-Jan-22 19:31N 35°33' E 140°01'1010.6
2015-Jan-22 18:33N 35°28' E 139°51'1111.5
2015-Jan-22 17:33N 35°17' E 139°45'1111.3
2015-Jan-22 16:33N 35°06' E 139°44'1111.3
2015-Jan-22 15:33N 34°59' E 139°34'  
2015-Jan-19 22:23N 34°49' E 139°14'1413.0
2015-Jan-19 21:17N 34°58' E 139°28'1013.3
2015-Jan-19 20:33N 35°04' E 139°37'1312.6
2015-Jan-19 19:34N 35°14' E 139°46'1211.7
2015-Jan-19 18:34N 35°26' E 139°44'3 3.4
2015-Jan-19 17:32N 35°29' E 139°44'0 0.0
2015-Jan-19 16:32N 35°29' E 139°44'0 0.0
2015-Jan-19 15:32N 35°29' E 139°44'0 0.0
2015-Jan-19 14:32N 35°29' E 139°44'0 0.0
2015-Jan-19 13:32N 35°29' E 139°44'0 0.0
2015-Jan-19 12:32N 35°29' E 139°44'0 0.0
2015-Jan-19 11:32N 35°29' E 139°44'0 0.0
2015-Jan-19 10:32N 35°29' E 139°44'0 0.0
2015-Jan-19 09:32N 35°29' E 139°44'0 0.0
2015-Jan-19 08:32N 35°29' E 139°44'0 0.0
2015-Jan-19 07:32N 35°29' E 139°44'5 4.9
2015-Jan-19 06:33N 35°25' E 139°46'0 0.1
2015-Jan-19 05:30N 35°24' E 139°46'0 0.1
2015-Jan-19 04:33N 35°24' E 139°46'0 0.1
2015-Jan-19 03:33N 35°24' E 139°46'0 0.0
2015-Jan-19 02:27N 35°24' E 139°46'0 0.0
2015-Jan-19 01:30N 35°24' E 139°46'0 0.0
2015-Jan-19 00:33N 35°24' E 139°46'0 0.0
2015-Jan-18 23:33N 35°24' E 139°46'0 0.0
2015-Jan-18 22:33N 35°24' E 139°46'0 0.1
2015-Jan-18 21:33N 35°24' E 139°46'3 2.7
2015-Jan-18 20:33N 35°22' E 139°44'1010.2
2015-Jan-18 19:33N 35°12' E 139°47'1212.1
2015-Jan-18 18:33N 35°02' E 139°38'1412.8
2015-Jan-18 17:30N 34°54' E 139°25'  
2015-Jan-16 05:21N 34°47' E 139°13'1613.0
2015-Jan-16 04:07N 34°58' E 139°27'712.6
2015-Jan-16 03:33N 35°02' E 139°34'1312.8
2015-Jan-16 02:33N 35°11' E 139°45'1212.0
2015-Jan-16 01:33N 35°23' E 139°42'1313.1
2015-Jan-16 00:33N 35°32' E 139°54'  
Track history (hours):
 
Tides and Currents Weather Stations Pressure Air Temp Water Temp Dewpoint Dewpoint Depression Visibility Wind Speed Wind Dir Waves Ship Positions

Nissan Maru

Last reported at 2015-Jan-25 10:33 UTC. Time now 2015-Jan-26 22:36 UTC.
Position N 35°01' E 139°33'.

Length 108 m; draft 7 m.

Type: Cargo ship. MMSI: 431400593.

Date/timePositionNaut miles runAvg speedWind from/ knotsBaromVisibWave heightAir tempDewpointWater temp
2015-Jan-25 10:33N 35°01' E 139°33'1313.2
2015-Jan-25 09:33N 35°11' E 139°45'1111.1
2015-Jan-25 08:33N 35°21' E 139°42'1212.1
2015-Jan-25 07:33N 35°30' E 139°52'7 0.6
2015-Jan-24 19:30N 35°33' E 140°00'1112.0
2015-Jan-24 18:34N 35°28' E 139°48'3 3.1
2015-Jan-24 17:31N 35°29' E 139°44'0 0.0
2015-Jan-24 16:31N 35°29' E 139°44'0 0.0
2015-Jan-24 15:31N 35°29' E 139°44'0 0.0
2015-Jan-24 14:31N 35°29' E 139°44'0 0.0
2015-Jan-24 13:31N 35°29' E 139°44'0 0.0
2015-Jan-24 12:31N 35°29' E 139°44'0 0.0
2015-Jan-24 11:31N 35°29' E 139°44'0 0.0
2015-Jan-24 10:31N 35°29' E 139°44'0 0.0
2015-Jan-24 09:31N 35°29' E 139°44'0 0.0
2015-Jan-24 08:31N 35°29' E 139°44'0 0.0
2015-Jan-24 07:31N 35°29' E 139°44'0 0.0
2015-Jan-24 06:28N 35°29' E 139°44'0 0.0
2015-Jan-24 05:31N 35°29' E 139°44'0 0.0
2015-Jan-24 04:31N 35°29' E 139°44'0 0.0
2015-Jan-24 03:31N 35°29' E 139°44'0 0.0
2015-Jan-24 02:31N 35°29' E 139°44'0 0.0
2015-Jan-24 01:31N 35°29' E 139°44'0 0.0
2015-Jan-24 00:31N 35°29' E 139°44'0 0.0
2015-Jan-23 23:31N 35°29' E 139°44'0 0.0
2015-Jan-23 22:33N 35°29' E 139°44'3 2.5
2015-Jan-23 21:33N 35°27' E 139°45'5 5.1
2015-Jan-23 20:33N 35°30' E 139°51'9 8.7
2015-Jan-23 19:31N 35°34' E 140°00'1 0.0
2015-Jan-22 21:21N 35°33' E 140°01'0 0.0
2015-Jan-22 19:31N 35°33' E 140°01'1010.6
2015-Jan-22 18:33N 35°28' E 139°51'1111.5
2015-Jan-22 17:33N 35°17' E 139°45'1111.3
2015-Jan-22 16:33N 35°06' E 139°44'1111.3
2015-Jan-22 15:33N 34°59' E 139°34'  
2015-Jan-19 22:23N 34°49' E 139°14'1413.0
2015-Jan-19 21:17N 34°58' E 139°28'1013.3
2015-Jan-19 20:33N 35°04' E 139°37'1312.6
2015-Jan-19 19:34N 35°14' E 139°46'1211.7
2015-Jan-19 18:34N 35°26' E 139°44'3 3.4
2015-Jan-19 17:32N 35°29' E 139°44'0 0.0
2015-Jan-19 16:32N 35°29' E 139°44'0 0.0
2015-Jan-19 15:32N 35°29' E 139°44'0 0.0
2015-Jan-19 14:32N 35°29' E 139°44'0 0.0
2015-Jan-19 13:32N 35°29' E 139°44'0 0.0
2015-Jan-19 12:32N 35°29' E 139°44'0 0.0
2015-Jan-19 11:32N 35°29' E 139°44'0 0.0
2015-Jan-19 10:32N 35°29' E 139°44'0 0.0
2015-Jan-19 09:32N 35°29' E 139°44'0 0.0
2015-Jan-19 08:32N 35°29' E 139°44'0 0.0
2015-Jan-19 07:32N 35°29' E 139°44'5 4.9
2015-Jan-19 06:33N 35°25' E 139°46'0 0.1
2015-Jan-19 05:30N 35°24' E 139°46'0 0.1
2015-Jan-19 04:33N 35°24' E 139°46'0 0.1
2015-Jan-19 03:33N 35°24' E 139°46'0 0.0
2015-Jan-19 02:27N 35°24' E 139°46'0 0.0
2015-Jan-19 01:30N 35°24' E 139°46'0 0.0
2015-Jan-19 00:33N 35°24' E 139°46'0 0.0
2015-Jan-18 23:33N 35°24' E 139°46'0 0.0
2015-Jan-18 22:33N 35°24' E 139°46'0 0.1
2015-Jan-18 21:33N 35°24' E 139°46'3 2.7
2015-Jan-18 20:33N 35°22' E 139°44'1010.2
2015-Jan-18 19:33N 35°12' E 139°47'1212.1
2015-Jan-18 18:33N 35°02' E 139°38'1412.8
2015-Jan-18 17:30N 34°54' E 139°25'  
2015-Jan-16 05:21N 34°47' E 139°13'1613.0
2015-Jan-16 04:07N 34°58' E 139°27'712.6
2015-Jan-16 03:33N 35°02' E 139°34'1312.8
2015-Jan-16 02:33N 35°11' E 139°45'1212.0
2015-Jan-16 01:33N 35°23' E 139°42'1313.1
2015-Jan-16 00:33N 35°32' E 139°54'  

Dump ship's entire track history